Time;durP1;ratioP1;P1;durP2;ratioP2;P2;SDS_P1;SDS_P2;PMS_P1;PMS_P2;Temp;Humidity;BMP_temperature;BMP_pressure;BME280_temperature;BME280_humidity;BME280_pressure;Samples;Min_cycle;Max_cycle;Signal;HPM_P1;HPM_P2
2023/01/17 00:00:28;;;;;;;72.50;38.28;;;;;;;10.91;88.93;99894.34;5032527;28;20381;-81
2023/01/17 00:02:54;;;;;;;72.10;39.92;;;;;;;10.98;88.93;99892.75;5032642;28;20026;-80
2023/01/17 00:10:47;;;;;;;66.80;35.65;;;;;;;10.90;87.62;99885.41;5032442;28;20045;-81
2023/01/17 00:13:12;;;;;;;72.82;36.30;;;;;;;10.80;88.30;99878.34;5032908;28;20030;-81
2023/01/17 00:15:38;;;;;;;77.00;38.47;;;;;;;10.81;88.08;99875.53;5032421;28;20034;-80
2023/01/17 00:18:04;;;;;;;72.78;38.28;;;;;;;10.65;88.28;99866.34;5015848;28;20567;-81
2023/01/17 00:26:11;;;;;;;61.75;32.90;;;;;;;10.75;87.95;99865.34;5051867;28;20114;-80
2023/01/17 01:35:26;;;;;;;37.92;24.88;;;;;;;11.00;77.57;99836.97;5050738;28;20086;-80
2023/01/17 01:37:51;;;;;;;42.88;27.40;;;;;;;11.01;78.23;99830.56;5050422;28;20490;-80
2023/01/17 01:40:18;;;;;;;46.08;27.55;;;;;;;10.92;77.82;99828.75;5050015;28;20396;-80
2023/01/17 01:42:52;;;;;;;36.97;25.30;;;;;;;10.90;78.38;99826.22;5050914;28;20025;-81
2023/01/17 01:45:20;;;;;;;45.65;24.75;;;;;;;10.91;78.20;99830.63;5050178;28;20044;-81
2023/01/17 01:47:48;;;;;;;23.90;14.27;;;;;;;10.84;78.37;99816.06;5050114;28;20021;-81
2023/01/17 01:50:15;;;;;;;20.30;12.88;;;;;;;10.98;77.54;99840.81;5050541;28;20040;-80
2023/01/17 01:52:44;;;;;;;20.27;12.13;;;;;;;11.07;77.27;99853.38;5050424;28;20111;-81
2023/01/17 01:55:22;;;;;;;29.05;12.48;;;;;;;11.18;76.90;99818.19;5050504;28;20492;-81
2023/01/17 01:57:51;;;;;;;18.40;12.60;;;;;;;11.21;75.91;99818.75;5050638;28;20412;-81
2023/01/17 02:00:25;;;;;;;23.13;13.98;;;;;;;11.31;76.07;99814.16;5050576;28;20111;-81
2023/01/17 02:02:54;;;;;;;30.77;11.98;;;;;;;11.37;75.95;99812.72;5050540;28;20025;-81
2023/01/17 02:05:22;;;;;;;19.83;12.98;;;;;;;11.36;75.22;99802.94;5031547;28;20045;-81
2023/01/17 02:07:57;;;;;;;27.80;13.90;;;;;;;11.54;74.79;99825.38;5050560;28;20037;-81
2023/01/17 02:10:23;;;;;;;24.42;14.48;;;;;;;11.56;74.50;99790.22;5050388;28;20021;-80
2023/01/17 02:12:50;;;;;;;19.10;12.95;;;;;;;11.57;73.81;99792.75;5050162;28;20369;-79
2023/01/17 02:15:16;;;;;;;22.88;13.93;;;;;;;11.62;74.01;99795.00;5050721;28;20029;-80
2023/01/17 02:17:50;;;;;;;20.48;13.77;;;;;;;11.66;74.02;99805.31;5050240;28;20033;-80
2023/01/17 02:20:50;;;;;;;25.23;14.13;;;;;;;11.64;74.36;99810.00;5051175;28;20029;-79
2023/01/17 02:23:33;;;;;;;25.73;14.65;;;;;;;11.72;73.48;99793.97;5057820;28;20024;-82
2023/01/17 02:25:59;;;;;;;29.40;17.15;;;;;;;11.76;73.53;99781.88;5075322;28;20029;-81
2023/01/17 02:29:14;;;;;;;28.63;15.55;;;;;;;11.86;73.64;99787.22;5073143;28;20035;-79
2023/01/17 02:31:46;;;;;;;25.45;16.05;;;;;;;11.83;73.46;99780.25;5054441;28;20025;-81
2023/01/17 02:34:23;;;;;;;27.95;15.82;;;;;;;11.89;73.60;99776.13;5053792;28;20040;-79
2023/01/17 02:36:59;;;;;;;22.77;14.63;;;;;;;11.93;73.21;99777.50;5050918;28;20032;-80
2023/01/17 02:39:33;;;;;;;19.23;14.38;;;;;;;12.01;72.16;99780.28;5049752;28;20029;-80
2023/01/17 02:42:07;;;;;;;27.98;16.60;;;;;;;12.02;72.45;99764.97;5049409;28;20025;-80
2023/01/17 02:44:42;;;;;;;22.63;16.52;;;;;;;12.06;72.21;99760.94;5049257;28;20048;-80
2023/01/17 02:47:26;;;;;;;28.25;16.40;;;;;;;11.97;72.61;99755.47;5049541;28;20090;-82
2023/01/17 02:49:55;;;;;;;25.92;16.00;;;;;;;11.85;73.26;99745.09;5031381;28;20392;-80
2023/01/17 02:52:39;;;;;;;32.45;16.85;;;;;;;11.89;73.27;99747.34;5049354;28;20029;-80
2023/01/17 02:55:42;;;;;;;32.63;16.10;;;;;;;11.90;73.31;99740.06;5049231;28;20061;-81
2023/01/17 02:58:45;;;;;;;27.00;16.80;;;;;;;11.85;73.83;99743.25;5049499;28;20040;-80
2023/01/17 03:01:10;;;;;;;25.75;15.73;;;;;;;11.88;74.04;99742.09;5049556;28;20040;-81
2023/01/17 03:03:49;;;;;;;28.50;17.00;;;;;;;11.88;73.43;99756.41;5049393;28;20021;-81
2023/01/17 03:06:22;;;;;;;34.05;18.33;;;;;;;11.87;73.53;99753.84;5049679;28;20033;-81
2023/01/17 03:08:50;;;;;;;25.90;16.77;;;;;;;11.87;73.32;99760.09;5049605;28;20033;-80
2023/01/17 03:11:16;;;;;;;33.05;17.15;;;;;;;11.87;73.01;99764.63;5049406;28;20538;-79
2023/01/17 03:13:42;;;;;;;33.40;16.48;;;;;;;11.77;73.69;99761.19;5049495;28;20028;-80
2023/01/17 03:16:17;;;;;;;29.38;17.15;;;;;;;11.78;73.82;99755.63;5049146;28;20031;-80
2023/01/17 03:18:43;;;;;;;23.52;16.30;;;;;;;11.78;74.58;99763.72;5049287;28;20035;-80
2023/01/17 03:21:08;;;;;;;29.33;16.65;;;;;;;11.82;74.49;99759.72;5048939;28;20524;-79
2023/01/17 03:23:34;;;;;;;25.50;16.17;;;;;;;11.76;74.56;99752.25;5049013;28;20106;-80
2023/01/17 03:25:59;;;;;;;23.30;15.32;;;;;;;11.77;75.08;99751.25;5049010;28;20105;-81
2023/01/17 03:28:25;;;;;;;25.67;14.73;;;;;;;11.80;74.95;99750.94;5049127;28;20028;-80
2023/01/17 03:30:50;;;;;;;23.88;14.50;;;;;;;11.62;75.62;99731.19;5051203;28;20033;-79
2023/01/17 03:33:17;;;;;;;26.83;14.73;;;;;;;11.62;76.41;99741.16;5052945;28;20116;-80
2023/01/17 03:35:44;;;;;;;31.20;14.48;;;;;;;11.69;76.34;99737.66;5052822;28;20036;-80
2023/01/17 03:38:10;;;;;;;24.70;15.75;;;;;;;11.71;75.63;99746.47;5052446;28;20163;-80
2023/01/17 03:40:35;;;;;;;25.10;15.38;;;;;;;11.68;76.67;99743.22;5052860;28;20048;-80
2023/01/17 03:43:00;;;;;;;26.77;16.13;;;;;;;11.76;76.01;99744.19;5052418;28;20025;-80
2023/01/17 03:45:26;;;;;;;23.48;14.32;;;;;;;11.83;76.22;99734.44;5034988;28;20045;-80
2023/01/17 03:47:52;;;;;;;26.05;15.52;;;;;;;11.87;75.64;99746.63;5052325;28;20404;-80
2023/01/17 03:50:18;;;;;;;22.75;15.65;;;;;;;11.81;75.48;99741.00;5052060;28;20044;-80
2023/01/17 03:52:44;;;;;;;26.25;14.82;;;;;;;11.85;75.34;99742.41;5052835;28;20025;-80
2023/01/17 03:55:09;;;;;;;25.08;16.33;;;;;;;11.88;75.45;99737.56;5052264;28;20041;-80
2023/01/17 03:57:35;;;;;;;30.15;15.00;;;;;;;11.94;75.06;99747.72;5052411;28;20595;-80
2023/01/17 04:00:00;;;;;;;24.02;14.77;;;;;;;11.91;75.13;99742.63;5051863;28;20115;-81
2023/01/17 04:02:26;;;;;;;47.00;20.23;;;;;;;11.87;74.28;99735.84;5052143;28;20029;-82
2023/01/17 04:04:51;;;;;;;28.83;15.73;;;;;;;11.90;75.02;99735.53;5034807;28;21315;-82
2023/01/17 04:07:16;;;;;;;30.58;16.63;;;;;;;11.98;74.77;99746.41;5032173;28;20030;-81
2023/01/17 04:09:42;;;;;;;30.15;14.98;;;;;;;12.06;74.56;99752.84;5032359;28;20029;-80
2023/01/17 04:12:08;;;;;;;23.67;14.27;;;;;;;11.93;74.69;99748.69;5031943;28;20055;-82
2023/01/17 04:14:34;;;;;;;24.98;13.60;;;;;;;11.96;74.60;99748.38;5031711;28;20116;-80
2023/01/17 04:17:00;;;;;;;29.73;12.95;;;;;;;11.89;75.35;99739.25;5032025;28;20992;-81
2023/01/17 04:19:25;;;;;;;28.55;15.85;;;;;;;11.88;75.52;99753.72;5031992;28;20029;-81
2023/01/17 04:21:51;;;;;;;26.20;14.70;;;;;;;11.88;75.39;99755.56;5031271;28;20056;-80
2023/01/17 04:24:16;;;;;;;27.25;15.35;;;;;;;11.79;75.24;99748.41;5031615;28;20029;-79
2023/01/17 04:26:42;;;;;;;21.15;14.13;;;;;;;11.67;76.52;99742.38;5031290;28;20028;-80
2023/01/17 04:29:07;;;;;;;16.73;11.77;;;;;;;11.67;77.18;99745.06;5031399;28;20242;-79
2023/01/17 04:31:33;;;;;;;27.80;11.68;;;;;;;11.76;77.06;99749.56;5031735;28;20120;-81
2023/01/17 04:33:58;;;;;;;21.60;11.70;;;;;;;11.80;76.96;99759.00;5031551;28;20524;-80
2023/01/17 04:36:24;;;;;;;33.67;12.88;;;;;;;11.94;77.03;99757.63;5031687;28;20074;-80
2023/01/17 04:38:49;;;;;;;20.73;11.82;;;;;;;11.97;76.94;99741.16;5013721;28;20041;-82
2023/01/17 04:41:14;;;;;;;19.20;12.25;;;;;;;12.13;76.17;99753.94;5030840;28;20048;-80
2023/01/17 04:43:40;;;;;;;22.33;13.88;;;;;;;12.18;75.76;99749.75;5030625;28;20472;-80
2023/01/17 04:46:08;;;;;;;25.98;15.75;;;;;;;12.23;75.09;99757.38;5031411;28;20700;-81
2023/01/17 04:48:34;;;;;;;34.78;15.32;;;;;;;12.29;74.87;99764.84;5031076;28;20037;-80
2023/01/17 04:51:01;;;;;;;25.00;14.73;;;;;;;12.28;74.29;99753.22;5031036;28;20029;-81
2023/01/17 04:53:28;;;;;;;21.25;14.80;;;;;;;12.26;74.29;99752.50;5040495;28;20025;-81
2023/01/17 04:55:53;;;;;;;26.40;15.48;;;;;;;12.26;74.78;99765.16;5017314;28;20087;-81
2023/01/17 04:58:19;;;;;;;25.85;13.95;;;;;;;12.17;74.43;99775.00;5030739;28;20033;-80
2023/01/17 05:00:49;;;;;;;24.08;11.55;;;;;;;12.13;74.68;99759.31;5030967;28;20033;-81
2023/01/17 05:03:18;;;;;;;35.35;14.20;;;;;;;12.30;75.23;99774.59;5031474;28;20443;-80
2023/01/17 05:05:43;;;;;;;22.13;13.95;;;;;;;12.30;75.11;99771.91;5031279;28;20052;-81
2023/01/17 05:08:09;;;;;;;32.80;14.32;;;;;;;12.36;75.06;99773.97;5031533;28;20033;-87
2023/01/17 05:10:34;;;;;;;62.80;16.95;;;;;;;12.35;74.64;99764.22;5035030;28;20040;-85
2023/01/17 05:13:00;;;;;;;25.27;13.40;;;;;;;12.46;74.37;99758.56;5017910;28;20029;-86
2023/01/17 05:15:26;;;;;;;29.58;15.88;;;;;;;12.41;74.10;99755.50;5034484;28;20090;-87
2023/01/17 05:17:52;;;;;;;25.42;16.23;;;;;;;12.42;74.07;99776.91;5032630;28;20030;-86
2023/01/17 05:20:19;;;;;;;28.88;16.55;;;;;;;12.36;74.27;99768.59;5032784;28;20040;-87
2023/01/17 05:22:54;;;;;;;35.25;16.40;;;;;;;12.40;74.17;99764.59;5015102;28;20041;-86
2023/01/17 05:25:20;;;;;;;44.47;21.98;;;;;;;12.40;74.24;99775.38;5036435;28;20036;-88
2023/01/17 05:27:45;;;;;;;27.65;16.10;;;;;;;12.36;73.86;99752.41;5015395;28;20030;-86
2023/01/17 05:30:11;;;;;;;33.88;16.13;;;;;;;12.42;74.19;99763.41;5032691;28;20432;-86
2023/01/17 05:32:37;;;;;;;31.98;15.25;;;;;;;12.43;74.32;99770.50;5032365;28;20041;-87
2023/01/17 05:35:02;;;;;;;25.58;15.20;;;;;;;12.31;74.38;99752.91;5032521;28;20477;-87
2023/01/17 05:37:28;;;;;;;34.85;13.43;;;;;;;12.46;74.58;99766.66;5032003;28;20548;-84
2023/01/17 05:39:53;;;;;;;29.25;14.45;;;;;;;12.45;74.50;99764.94;5030668;28;20030;-86
2023/01/17 05:42:18;;;;;;;27.20;10.68;;;;;;;12.49;75.63;99785.22;5030293;28;20028;-78
2023/01/17 05:44:44;;;;;;;14.25;8.80;;;;;;;12.57;75.97;99787.97;5030192;28;20117;-89
2023/01/17 05:47:09;;;;;;;46.33;11.65;;;;;;;12.65;76.38;99790.72;5031319;28;20036;-83
2023/01/17 05:49:35;;;;;;;25.48;10.23;;;;;;;12.72;75.77;99786.38;5030429;28;20039;-78
2023/01/17 05:52:01;;;;;;;27.77;12.25;;;;;;;12.83;75.61;99778.03;5030511;28;20440;-87
2023/01/17 05:54:26;;;;;;;18.90;10.98;;;;;;;12.82;75.88;99787.13;5030064;28;20037;-83
2023/01/17 05:56:51;;;;;;;30.52;15.60;;;;;;;12.99;75.18;99801.56;5030588;28;20091;-83
2023/01/17 05:59:17;;;;;;;25.50;12.80;;;;;;;12.90;75.31;99795.25;5031098;28;20037;-84
2023/01/17 06:01:42;;;;;;;43.85;13.63;;;;;;;13.02;74.83;99810.19;5030173;28;20074;-82
2023/01/17 06:04:08;;;;;;;53.10;21.30;;;;;;;13.06;74.63;99806.16;5030431;28;20026;-82
2023/01/17 06:06:33;;;;;;;28.58;12.77;;;;;;;12.91;75.07;99802.34;5031604;28;20253;-84
2023/01/17 06:08:58;;;;;;;40.15;13.82;;;;;;;12.98;74.92;99803.41;5033890;28;20025;-89
2023/01/17 06:11:24;;;;;;;37.75;13.95;;;;;;;13.03;75.20;99817.28;5037043;28;20409;-93
2023/01/17 06:13:49;;;;;;;28.02;13.13;;;;;;;12.94;75.22;99801.19;5035437;28;20440;-90
2023/01/17 06:16:15;;;;;;;43.50;14.43;;;;;;;13.04;75.19;99810.03;5035801;28;20032;-94
2023/01/17 06:18:40;;;;;;;48.53;14.52;;;;;;;13.12;75.47;99810.09;5034901;28;20055;-90
2023/01/17 06:21:06;;;;;;;29.25;12.10;;;;;;;13.06;75.08;99800.75;5037351;28;20025;-89
2023/01/17 06:23:31;;;;;;;28.10;12.43;;;;;;;13.15;75.54;99803.53;5044215;28;20021;-91
2023/01/17 06:26:01;;;;;;;33.83;12.23;;;;;;;13.26;75.44;99806.78;5020696;28;20064;-94
2023/01/17 06:28:27;;;;;;;40.10;12.27;;;;;;;13.32;75.29;99799.91;5041051;28;20044;-94
2023/01/17 06:30:52;;;;;;;61.13;14.23;;;;;;;13.34;75.23;99792.47;5035982;28;20045;-91
2023/01/17 06:33:17;;;;;;;36.33;12.50;;;;;;;13.37;74.95;99802.94;5042000;28;20037;-91
2023/01/17 06:35:48;;;;;;;52.42;14.95;;;;;;;13.45;75.06;99795.75;5044279;28;20036;-89
2023/01/17 06:38:13;;;;;;;32.25;12.50;;;;;;;13.48;75.00;99790.00;5034641;28;20026;-89
2023/01/17 06:40:39;;;;;;;49.70;12.60;;;;;;;13.54;74.81;99802.88;5051660;28;20027;-89
2023/01/17 06:43:04;;;;;;;35.85;13.82;;;;;;;13.56;74.49;99805.38;5054876;28;20073;-91
2023/01/17 06:45:32;;;;;;;43.78;13.88;;;;;;;13.62;74.69;99804.72;5056308;28;20076;-90
2023/01/17 06:47:59;;;;;;;89.15;18.48;;;;;;;13.66;74.48;99810.66;5036384;28;20029;-91
2023/01/17 06:50:25;;;;;;;62.05;15.05;;;;;;;13.71;74.44;99809.16;5039525;28;20033;-92
2023/01/17 06:52:59;;;;;;;30.35;12.27;;;;;;;13.75;74.42;99813.22;5052633;28;20018;-92
2023/01/17 06:55:27;;;;;;;74.50;30.70;;;;;;;13.75;74.54;99832.13;5055303;28;20022;-85
2023/01/17 06:57:54;;;;;;;59.65;14.90;;;;;;;13.67;74.41;99837.50;5055245;28;20037;-86
2023/01/17 07:00:20;;;;;;;44.72;15.77;;;;;;;13.65;74.66;99828.72;5035972;28;20022;-85
2023/01/17 07:02:49;;;;;;;53.00;14.82;;;;;;;13.69;74.77;99838.19;5035762;28;20080;-89
2023/01/17 07:05:16;;;;;;;39.05;13.05;;;;;;;13.55;74.93;99833.41;5047682;28;20029;-94
2023/01/17 07:07:42;;;;;;;34.58;14.48;;;;;;;13.46;74.95;99824.44;5028587;28;20037;-92
2023/01/17 07:10:09;;;;;;;40.70;13.38;;;;;;;13.39;75.47;99833.38;5041012;28;20032;-92
2023/01/17 07:12:34;;;;;;;57.63;17.55;;;;;;;13.31;75.98;99836.84;5038853;28;20084;-93
2023/01/17 07:15:00;;;;;;;29.50;14.23;;;;;;;13.28;76.48;99842.56;5038222;28;20141;-94
2023/01/17 07:17:25;;;;;;;66.70;17.45;;;;;;;13.26;76.60;99851.84;5040049;28;20101;-95
2023/01/17 07:19:50;;;;;;;47.53;16.95;;;;;;;13.24;76.87;99843.06;5038556;28;20087;-92
2023/01/17 07:22:16;;;;;;;55.00;18.85;;;;;;;13.28;76.50;99858.78;5026757;28;20025;-95
2023/01/17 07:24:41;;;;;;;40.72;16.95;;;;;;;13.22;77.03;99853.16;5038251;28;20017;-89
2023/01/17 07:27:07;;;;;;;45.88;15.25;;;;;;;13.22;77.35;99835.13;5039025;28;20033;-94
2023/01/17 07:29:32;;;;;;;45.17;15.65;;;;;;;13.28;76.94;99855.22;5024652;28;20561;-90
2023/01/17 07:31:58;;;;;;;45.95;18.17;;;;;;;13.22;76.93;99850.47;5042722;28;20074;-92
2023/01/17 07:34:23;;;;;;;43.72;16.42;;;;;;;13.19;77.49;99858.91;4987990;28;20063;-92
2023/01/17 07:37:12;;;;;;;39.78;15.82;;;;;;;13.28;77.49;99855.22;5041895;28;20044;-94
2023/01/17 07:39:59;;;;;;;62.00;22.80;;;;;;;13.31;77.19;99852.19;4942090;29;20032;-92
2023/01/17 07:42:25;;;;;;;54.47;13.75;;;;;;;13.40;76.71;99856.63;4947374;29;20048;-90
2023/01/17 07:44:50;;;;;;;63.83;15.07;;;;;;;13.30;77.17;99845.13;4923545;29;20526;-89
2023/01/17 07:47:16;;;;;;;37.30;11.63;;;;;;;13.39;76.99;99857.66;4920658;29;20036;-92
2023/01/17 07:49:41;;;;;;;39.78;13.02;;;;;;;13.39;77.52;99849.56;4937397;29;20036;-92
2023/01/17 07:52:07;;;;;;;43.22;12.27;;;;;;;13.51;77.58;99845.56;4924962;29;20050;-91
2023/01/17 07:54:33;;;;;;;43.58;11.38;;;;;;;13.59;76.83;99840.19;4926587;29;20105;-90
2023/01/17 07:56:58;;;;;;;56.60;12.55;;;;;;;13.69;76.33;99846.31;4924300;29;20089;-92
2023/01/17 07:59:24;;;;;;;39.97;11.13;;;;;;;13.72;76.07;99850.53;4936689;29;20043;-88
2023/01/17 08:01:49;;;;;;;63.83;11.15;;;;;;;13.71;75.95;99838.03;4937027;29;20036;-92
2023/01/17 08:04:15;;;;;;;32.20;9.93;;;;;;;13.81;75.83;99850.41;4936742;29;20146;-92
2023/01/17 08:06:46;;;;;;;35.40;10.68;;;;;;;13.90;75.89;99846.72;4942439;29;20419;-94
2023/01/17 08:09:12;;;;;;;33.47;10.32;;;;;;;13.91;75.44;99840.28;4953729;29;20149;-93
2023/01/17 08:11:38;;;;;;;34.80;10.45;;;;;;;13.97;75.09;99823.41;4929784;29;20035;-91
2023/01/17 08:14:03;;;;;;;58.15;12.50;;;;;;;13.91;74.95;99845.69;4937634;29;20042;-92
2023/01/17 08:16:29;;;;;;;29.30;11.80;;;;;;;13.72;75.59;99824.38;4947446;28;20043;-91
2023/01/17 08:18:55;;;;;;;40.35;13.82;;;;;;;13.73;75.84;99836.03;4974663;28;20037;-91
2023/01/17 08:21:23;;;;;;;43.25;12.73;;;;;;;13.68;75.83;99830.25;4974189;28;20050;-92
2023/01/17 08:23:49;;;;;;;63.45;17.10;;;;;;;13.57;76.04;99826.00;4974669;28;20026;-91
2023/01/17 08:26:23;;;;;;;21.73;12.85;;;;;;;13.52;76.76;99823.78;4974491;28;20566;-92
2023/01/17 08:28:55;;;;;;;32.85;12.90;;;;;;;13.56;77.07;99835.09;4977799;28;20945;-91
2023/01/17 08:31:21;;;;;;;28.77;14.32;;;;;;;13.59;77.21;99826.66;5018701;28;20511;-89
2023/01/17 08:33:46;;;;;;;31.38;13.75;;;;;;;13.61;77.18;99816.53;5035911;28;20035;-93
2023/01/17 08:36:12;;;;;;;35.50;17.58;;;;;;;13.64;77.78;99813.50;5035414;28;20053;-89
2023/01/17 08:38:37;;;;;;;43.53;18.15;;;;;;;13.69;77.58;99811.19;5039246;28;20037;-93
2023/01/17 08:41:03;;;;;;;36.67;15.23;;;;;;;13.84;77.11;99801.41;5037158;28;20052;-92
2023/01/17 08:43:28;;;;;;;33.55;14.93;;;;;;;13.91;77.16;99794.31;5040882;28;20021;-91
2023/01/17 08:45:55;;;;;;;31.23;14.65;;;;;;;14.01;76.92;99781.50;5018631;28;20059;-92
2023/01/17 08:48:24;;;;;;;44.08;17.02;;;;;;;14.23;76.32;99798.06;5035935;28;20112;-93
2023/01/17 08:50:49;;;;;;;37.42;14.63;;;;;;;14.34;75.94;99781.56;5040756;28;20033;-91
2023/01/17 08:53:34;;;;;;;35.65;15.90;;;;;;;14.49;75.15;99791.53;5040069;28;20105;-89
2023/01/17 08:56:02;;;;;;;28.88;13.32;;;;;;;14.59;74.39;99796.75;4973473;28;20089;-90
2023/01/17 08:58:29;;;;;;;32.78;14.60;;;;;;;14.51;73.31;99796.75;4973356;28;20074;-91
2023/01/17 09:00:59;;;;;;;32.83;15.52;;;;;;;14.52;73.65;99799.31;4956762;28;20063;-93
2023/01/17 09:03:24;;;;;;;29.92;11.82;;;;;;;14.59;73.56;99789.47;4973917;28;20073;-90
2023/01/17 09:06:03;;;;;;;39.63;13.10;;;;;;;14.75;73.66;99802.16;4957972;28;20047;-92
2023/01/17 09:08:28;;;;;;;40.05;12.20;;;;;;;14.89;73.29;99798.72;4973565;28;20763;-91
2023/01/17 09:10:53;;;;;;;38.65;13.30;;;;;;;15.02;72.52;99781.94;4973492;28;20042;-91
2023/01/17 09:13:19;;;;;;;33.60;11.13;;;;;;;15.20;71.83;99769.88;4972407;28;20585;-92
2023/01/17 09:15:44;;;;;;;53.00;12.52;;;;;;;15.25;71.56;99775.63;4970323;28;20122;-89
2023/01/17 09:18:10;;;;;;;76.28;15.25;;;;;;;15.38;71.31;99776.94;4955212;28;20101;-90
2023/01/17 09:20:35;;;;;;;31.55;10.73;;;;;;;15.41;70.28;99758.41;4970902;28;20035;-91
2023/01/17 09:23:03;;;;;;;82.22;15.98;;;;;;;15.38;70.35;99766.09;4971536;28;20039;-92
2023/01/17 09:25:28;;;;;;;54.85;12.82;;;;;;;15.41;69.81;99761.13;4970281;28;20034;-90
2023/01/17 09:27:54;;;;;;;44.83;12.10;;;;;;;15.35;70.43;99745.59;5023517;28;20417;-91
2023/01/17 09:30:19;;;;;;;51.00;12.82;;;;;;;15.17;69.88;99721.47;5032124;28;20121;-90
2023/01/17 09:32:54;;;;;;;40.15;12.10;;;;;;;14.93;71.12;99735.09;5031681;28;20065;-90
2023/01/17 09:35:19;;;;;;;39.08;12.48;;;;;;;14.73;71.92;99738.38;5032296;28;20111;-91
2023/01/17 09:37:48;;;;;;;70.68;11.80;;;;;;;14.55;73.13;99741.31;5019652;28;20021;-92
2023/01/17 09:40:18;;;;;;;36.05;12.52;;;;;;;14.40;73.35;99732.19;5037568;28;20133;-90
2023/01/17 09:42:44;;;;;;;51.38;14.15;;;;;;;14.34;73.86;99727.47;5035623;28;20102;-92
2023/01/17 09:45:18;;;;;;;52.67;13.27;;;;;;;14.46;74.27;99742.34;5034843;28;20046;-93
2023/01/17 09:47:52;;;;;;;32.70;12.23;;;;;;;14.52;73.83;99741.66;5041351;28;20029;-90
2023/01/17 09:50:22;;;;;;;51.58;13.40;;;;;;;14.64;73.93;99742.97;5037562;28;20032;-88
2023/01/17 09:52:47;;;;;;;45.10;13.88;;;;;;;14.66;73.21;99722.84;5036861;28;20544;-94
2023/01/17 09:55:15;;;;;;;55.03;13.38;;;;;;;14.80;73.40;99734.78;5036767;28;20099;-90
2023/01/17 09:58:05;;;;;;;60.42;12.73;;;;;;;14.92;72.77;99727.97;5038214;28;20032;-89
2023/01/17 10:00:30;;;;;;;55.23;13.80;;;;;;;14.92;72.38;99738.81;5020758;28;20037;-93
2023/01/17 10:03:21;;;;;;;64.72;12.52;;;;;;;14.94;71.91;99738.66;5037445;28;20069;-92
2023/01/17 10:06:17;;;;;;;59.65;13.38;;;;;;;14.74;72.32;99716.53;5037467;28;20034;-94
2023/01/17 10:09:08;;;;;;;50.78;13.45;;;;;;;14.79;72.71;99743.94;5036174;28;20034;-93
2023/01/17 10:11:46;;;;;;;31.25;12.23;;;;;;;14.80;72.42;99740.22;5037048;28;20051;-92
2023/01/17 10:14:39;;;;;;;94.07;18.20;;;;;;;14.89;72.63;99739.16;5037427;28;20112;-92
2023/01/17 10:17:05;;;;;;;60.92;15.43;;;;;;;14.86;73.15;99728.69;5036919;28;20026;-94
2023/01/17 10:19:36;;;;;;;45.33;12.98;;;;;;;14.88;73.20;99736.66;5037096;28;20030;-93
2023/01/17 10:22:45;;;;;;;54.38;12.00;;;;;;;14.90;73.09;99731.88;5036681;28;20125;-91
2023/01/17 10:25:31;;;;;;;52.63;13.43;;;;;;;14.94;72.88;99725.97;5037294;28;20108;-91
2023/01/17 10:28:03;;;;;;;52.00;17.02;;;;;;;15.08;73.25;99732.50;5050115;28;20096;-90
2023/01/17 10:30:49;;;;;;;43.13;14.53;;;;;;;15.12;72.70;99715.75;5026445;28;20036;-91
2023/01/17 10:33:27;;;;;;;43.28;14.18;;;;;;;15.09;72.21;99697.13;5035166;28;20064;-92
2023/01/17 10:36:02;;;;;;;44.67;12.95;;;;;;;14.97;72.61;99690.41;5035323;28;20108;-93
2023/01/17 10:38:34;;;;;;;65.80;15.88;;;;;;;14.74;72.71;99684.06;5034633;28;20111;-93
2023/01/17 10:41:23;;;;;;;51.30;13.52;;;;;;;14.90;73.10;99707.53;5036688;28;20033;-88
2023/01/17 10:43:58;;;;;;;67.57;15.98;;;;;;;14.89;72.64;99709.38;5038279;28;20046;-93
2023/01/17 10:46:34;;;;;;;83.72;16.95;;;;;;;14.92;72.77;99705.50;5017423;28;20032;-93
2023/01/17 10:49:02;;;;;;;93.80;22.10;;;;;;;14.90;72.77;99697.53;5036043;28;20458;-89
2023/01/17 10:51:33;;;;;;;44.67;15.82;;;;;;;14.91;72.57;99693.81;5046595;28;20127;-92
2023/01/17 10:54:23;;;;;;;48.58;15.13;;;;;;;14.96;72.41;99694.13;5023931;28;20057;-90
2023/01/17 10:56:49;;;;;;;66.10;16.33;;;;;;;14.90;73.10;99680.44;5034539;28;20025;-91
2023/01/17 10:59:36;;;;;;;74.43;17.85;;;;;;;14.95;73.18;99678.91;5055344;28;20034;-85
2023/01/17 11:02:05;;;;;;;53.40;16.13;;;;;;;15.01;72.84;99688.22;5050674;28;20048;-92
2023/01/17 11:04:36;;;;;;;60.20;15.88;;;;;;;14.99;72.57;99684.81;5031231;28;20116;-91
2023/01/17 11:07:11;;;;;;;54.70;16.42;;;;;;;14.98;72.82;99685.84;5032377;28;20111;-91
2023/01/17 11:09:39;;;;;;;92.25;20.27;;;;;;;14.96;72.93;99677.88;5031534;28;20036;-89
2023/01/17 11:12:16;;;;;;;56.85;14.90;;;;;;;15.00;72.60;99679.22;5030599;28;20412;-90
2023/01/17 11:14:53;;;;;;;47.97;15.20;;;;;;;15.07;73.13;99663.97;5013364;28;20033;-90
2023/01/17 11:17:19;;;;;;;51.95;15.80;;;;;;;15.10;72.70;99643.81;5037543;28;20116;-91
2023/01/17 11:19:50;;;;;;;127.18;23.50;;;;;;;15.17;72.69;99656.47;5033188;28;20064;-92
2023/01/17 11:22:16;;;;;;;50.17;14.30;;;;;;;15.32;72.01;99651.13;5014691;28;20396;-90
2023/01/17 11:24:54;;;;;;;60.50;17.63;;;;;;;15.44;71.95;99657.00;5032877;28;20025;-90
2023/01/17 11:28:07;;;;;;;43.28;13.95;;;;;;;15.40;72.48;99650.22;5033453;28;20025;-90
2023/01/17 11:30:33;;;;;;;61.85;14.48;;;;;;;15.64;71.58;99656.34;4931341;29;20043;-89
2023/01/17 11:33:00;;;;;;;42.80;14.30;;;;;;;15.82;70.80;99645.19;4931386;29;20036;-93
2023/01/17 11:35:28;;;;;;;66.32;15.45;;;;;;;15.86;70.42;99651.94;4932172;29;20043;-93
2023/01/17 11:38:01;;;;;;;63.65;16.45;;;;;;;15.94;69.55;99654.59;4931309;29;20040;-93
2023/01/17 11:40:28;;;;;;;55.83;14.45;;;;;;;15.95;69.79;99647.28;4931427;29;20044;-93
2023/01/17 11:43:18;;;;;;;44.03;12.95;;;;;;;15.92;69.34;99647.66;4915388;29;20480;-93
2023/01/17 11:45:46;;;;;;;56.45;14.30;;;;;;;15.84;69.82;99626.88;4931332;29;20047;-91
2023/01/17 11:48:15;;;;;;;169.85;24.05;;;;;;;15.84;70.05;99632.28;4914577;29;20162;-88
2023/01/17 11:50:53;;;;;;;48.22;13.45;;;;;;;15.98;69.18;99628.78;4934885;29;20118;-92
2023/01/17 11:53:30;;;;;;;82.30;16.70;;;;;;;16.16;68.74;99636.59;4935047;29;20047;-92
2023/01/17 11:56:10;;;;;;;77.95;14.68;;;;;;;16.22;68.66;99644.00;4935624;29;20059;-94
2023/01/17 11:58:40;;;;;;;66.85;14.90;;;;;;;16.31;68.58;99641.00;4934790;29;20058;-93
2023/01/17 12:01:26;;;;;;;70.65;15.43;;;;;;;16.27;67.81;99623.41;4934888;29;20075;-89
2023/01/17 12:04:09;;;;;;;50.92;9.75;;;;;;;16.41;66.41;99629.03;4922162;29;20114;-91
2023/01/17 12:06:42;;;;;;;58.88;12.95;;;;;;;16.45;64.87;99628.47;4985131;28;20046;-93
2023/01/17 12:09:42;;;;;;;50.88;13.50;;;;;;;16.28;66.90;99627.81;5034548;28;20063;-93
2023/01/17 12:15:25;;;;;;;51.88;13.75;;;;;;;16.19;66.66;99631.63;5052211;28;20045;-89
2023/01/17 12:18:19;;;;;;;54.47;11.57;;;;;;;16.21;66.99;99631.44;5051660;28;20036;-90
2023/01/17 12:21:02;;;;;;;49.63;11.00;;;;;;;16.28;67.31;99613.41;4970991;28;20113;-89
2023/01/17 12:23:56;;;;;;;43.97;9.48;;;;;;;16.44;66.47;99618.66;4967915;28;20043;-91
2023/01/17 12:26:43;;;;;;;26.05;7.13;;;;;;;16.64;63.82;99630.66;4958288;28;20286;-93
2023/01/17 12:29:30;;;;;;;31.08;6.05;;;;;;;16.75;61.37;99610.34;4955456;28;20444;-93
2023/01/17 12:32:13;;;;;;;19.88;4.60;;;;;;;17.05;59.68;99628.28;4955289;28;20050;-91
2023/01/17 12:34:46;;;;;;;13.98;4.07;;;;;;;17.17;58.60;99625.91;4953118;28;20605;-90
2023/01/17 12:37:35;;;;;;;16.80;3.65;;;;;;;17.33;58.02;99628.38;4952427;28;20107;-91
2023/01/17 12:40:27;;;;;;;21.45;4.75;;;;;;;17.44;57.45;99633.31;4952528;28;20094;-91
2023/01/17 12:43:13;;;;;;;21.63;4.93;;;;;;;17.60;57.31;99637.69;4952579;28;20122;-93
2023/01/17 12:45:42;;;;;;;19.33;4.70;;;;;;;17.66;57.02;99634.19;4876869;29;20144;-91
2023/01/17 12:48:16;;;;;;;25.15;4.25;;;;;;;17.75;56.69;99622.16;4877163;29;20037;-91
2023/01/17 12:51:01;;;;;;;28.50;4.72;;;;;;;17.70;56.58;99606.44;4876899;29;20045;-92
2023/01/17 12:53:36;;;;;;;27.33;8.07;;;;;;;17.84;56.08;99619.09;4876141;29;20079;-93